Gold Beach, OR

5:09 PM PDT on September 30, 2016 (GMT -0700)
KF7MWX | | Change Station

Elev 56 ft 42.41 °N, 124.42 °W | Updated 3 seconds ago

Overcast
Overcast
62.4 °F
Feels Like 62.4 °F
N
0.7
Wind Variable Wind from SE
Gusts 5.4 mph

Today
High -- | Low -- °F
--% Chance of Precip.
Yesterday
High -- | Low -- °F
Precip. -- in
Pressure 30.17 in
Visibility 10.0 miles
Clouds Overcast 3000 ft
Dew Point 48 °F
Humidity 58%
Rainfall 0.00 in
Snow Depth Not available.
7:14 AM 6:59 PM
New Moon, 0% visible
METAR KBOK 302356Z AUTO 10003KT 10SM OVC030 12/08 A3012 RMK AO2 RAE13 SLP215 P0000 60000 T01220083 10144 20111 58005
Pressure 30.17 in
Visibility 10.0 miles
Clouds Overcast 3000 ft
Dew Point 48 °F
Humidity 58%
Rainfall 0.00 in
Snow Depth Not available.
7:14 AM 6:59 PM
New Moon, 0% visible
METAR KBOK 302356Z AUTO 10003KT 10SM OVC030 12/08 A3012 RMK AO2 RAE13 SLP215 P0000 60000 T01220083 10144 20111 58005

10-Day Weather Forecast

Almanac

Astronomy

Sep. 30, 2016 Rise Set
Actual Time
Civil Twilight
Nautical Twilight
Astronomical Twilight
Moon
Length of Visible Light
Length of Day
Tomorrow will be .
, % of the Moon is Illuminated

Today's Extremes

State Highs State Lows

Community

WunderPhotos

Upload Photos

1,942,829 photos uploaded!

WunderBlog® & News

Nearby

Air Quality

  Air Quality AQ Index Pollutant
Not available.

Snow Depth

Station Depth Elevation

Earthquake Activity

City Distance Mag. Time & Date
Minimum magnitude displayed is 2.5.

Coastal Water Temperatures

Place Temperature

Stations

Nearby Weather Stations

Station Location Temp. Windchill Dew Point Humidity Wind Precip. Elev Updated Type
                   

Watches & Warnings

There are currently no watches in effect.